Porto Di Livorno — IFPU2 — position and weather

sailwx.info

Track history (hours):
 
Tides and Currents Weather Stations Pressure Air Temp Water Temp Dewpoint Dewpoint Depression Visibility Wind Speed Wind Dir Waves Ship Positions

Porto Di Livorno

Last reported at 2015-Mar-05 17:33 UTC. Time now 2015-Mar-06 00:01 UTC.
Position N 43°34' E 010°18'.

Length 24 m; draft 6.1 m.

Type: Tug. MMSI: 247194299.

Date/timePositionNaut miles runAvg speedWind from/ knotsBaromVisibWave heightAir tempDewpointWater temp
2015-Mar-05 17:33N 43°34' E 010°18'1 0.9
2015-Mar-05 16:33N 43°33' E 010°17'1 1.1
2015-Mar-05 15:33N 43°34' E 010°18'0 0.2
2015-Mar-05 14:33N 43°34' E 010°18'0 0.0
2015-Mar-05 13:33N 43°34' E 010°18'1 0.8
2015-Mar-05 12:33N 43°34' E 010°18'2 2.0
2015-Mar-05 11:33N 43°33' E 010°17'1 1.2
2015-Mar-05 10:33N 43°34' E 010°18'0 0.0
2015-Mar-05 09:33N 43°34' E 010°18'1 1.1
2015-Mar-05 08:33N 43°35' E 010°18'2 1.1
2015-Mar-05 06:15N 43°32' E 010°17'1 2.0
2015-Mar-05 05:33N 43°34' E 010°18'0 0.0
2015-Mar-05 04:33N 43°34' E 010°18'0 0.0
2015-Mar-05 03:08N 43°34' E 010°18'0 0.0
2015-Mar-05 02:33N 43°34' E 010°18'0 0.0
2015-Mar-05 01:33N 43°34' E 010°18'0 0.0
2015-Mar-05 00:33N 43°34' E 010°18'0 0.0
2015-Mar-04 23:33N 43°34' E 010°18'0 0.0
2015-Mar-04 22:33N 43°34' E 010°18'0 0.0
2015-Mar-04 21:33N 43°34' E 010°18'0 0.0
2015-Mar-04 20:33N 43°34' E 010°18'0 0.0
2015-Mar-04 16:33N 43°34' E 010°18'0 0.4
2015-Mar-04 15:33N 43°33' E 010°18'0 0.1
2015-Mar-04 14:33N 43°33' E 010°18'0 0.4
2015-Mar-04 13:33N 43°34' E 010°18'0 0.0
2015-Mar-04 12:33N 43°34' E 010°18'0 0.0
2015-Mar-04 11:33N 43°34' E 010°18'0 0.0
2015-Mar-04 10:33N 43°34' E 010°18'0 0.0
2015-Mar-04 09:33N 43°34' E 010°18'1 1.1
2015-Mar-04 08:33N 43°35' E 010°19'1 1.2
2015-Mar-04 07:33N 43°34' E 010°18'0 0.0
2015-Mar-04 06:33N 43°34' E 010°18'0 0.0
2015-Mar-04 05:33N 43°34' E 010°18'0 0.0
2015-Mar-04 04:33N 43°34' E 010°18'0 0.0
2015-Mar-04 03:33N 43°34' E 010°18'0 0.0
2015-Mar-04 02:33N 43°34' E 010°18'0 0.0
2015-Mar-04 01:33N 43°34' E 010°18'0 0.0
2015-Mar-04 00:33N 43°34' E 010°18'0 0.0
2015-Mar-03 23:33N 43°34' E 010°18'0 0.0
2015-Mar-03 22:33N 43°34' E 010°18'0 0.0
2015-Mar-03 21:33N 43°34' E 010°18'0 0.0
2015-Mar-03 20:33N 43°34' E 010°18'0 0.0
2015-Mar-03 19:33N 43°34' E 010°18'1 0.7
2015-Mar-03 18:33N 43°34' E 010°18'0 0.2
2015-Mar-03 17:33N 43°34' E 010°18'1 0.0
2015-Mar-02 16:33N 43°34' E 010°18'0 0.0
2015-Mar-02 15:33N 43°34' E 010°18'0 0.0
2015-Mar-02 14:33N 43°34' E 010°18'0 0.0
2015-Mar-02 13:33N 43°34' E 010°18'1 0.9
2015-Mar-02 12:33N 43°35' E 010°18'1 0.9
2015-Mar-02 11:33N 43°34' E 010°18'0 0.4
2015-Mar-02 10:33N 43°33' E 010°18'1 0.5
2015-Mar-02 09:33N 43°33' E 010°17'0 0.4
2015-Mar-02 08:33N 43°33' E 010°18'1 0.5
2015-Mar-02 07:33N 43°33' E 010°18'1 1.0
2015-Mar-02 06:33N 43°34' E 010°18'0 0.0
2015-Mar-02 05:33N 43°34' E 010°18'0 0.0
2015-Mar-02 04:33N 43°34' E 010°18'0 0.0
2015-Mar-02 03:33N 43°34' E 010°18'0 0.0
2015-Mar-02 02:33N 43°34' E 010°18'0 0.0
2015-Mar-02 01:33N 43°34' E 010°18'1 0.8
2015-Mar-02 00:33N 43°34' E 010°18'1 0.8
2015-Mar-01 23:33N 43°34' E 010°18'0 0.0
2015-Mar-01 22:33N 43°34' E 010°18'0 0.0
2015-Mar-01 21:33N 43°34' E 010°18'0 0.1
2015-Mar-01 20:33N 43°34' E 010°18'0 0.1
2015-Mar-01 19:33N 43°34' E 010°18'0 0.0
2015-Mar-01 18:33N 43°34' E 010°18'0 0.0
2015-Mar-01 17:33N 43°34' E 010°18'0 0.0
2015-Feb-28 16:33N 43°34' E 010°18'0 0.0
2015-Feb-28 15:33N 43°34' E 010°18'0 0.0
2015-Feb-28 14:33N 43°34' E 010°18'0 0.0
2015-Feb-28 13:33N 43°34' E 010°18'0 0.0
2015-Feb-28 12:33N 43°34' E 010°18'1 1.1
2015-Feb-28 11:33N 43°35' E 010°19'2 1.6
2015-Feb-28 10:33N 43°33' E 010°18'0 0.4
2015-Feb-28 09:33N 43°34' E 010°18'1 1.5
2015-Feb-28 08:33N 43°32' E 010°17'2 1.7
2015-Feb-28 07:33N 43°34' E 010°18'1 0.7
2015-Feb-28 06:34N 43°34' E 010°19'1 0.7
2015-Feb-28 05:33N 43°34' E 010°18'0 0.0
2015-Feb-28 04:33N 43°34' E 010°18'0 0.0
2015-Feb-28 03:33N 43°34' E 010°18'0 0.0
2015-Feb-28 02:33N 43°34' E 010°18'0 0.0
2015-Feb-28 01:33N 43°34' E 010°18'0 0.0
2015-Feb-28 00:33N 43°34' E 010°18'0 0.0
2015-Feb-27 23:33N 43°34' E 010°18'0 0.0
2015-Feb-27 22:33N 43°34' E 010°18'1 0.6
2015-Feb-27 21:33N 43°34' E 010°18'1 0.6
2015-Feb-27 20:33N 43°34' E 010°18'1 0.5
2015-Feb-27 19:33N 43°34' E 010°18'1 0.6
2015-Feb-27 18:33N 43°34' E 010°18'0 0.1
2015-Feb-27 17:33N 43°34' E 010°18'0 0.0
2015-Feb-26 16:33N 43°34' E 010°18'0 0.0
2015-Feb-26 15:33N 43°34' E 010°18'0 0.3
2015-Feb-26 14:33N 43°34' E 010°18'0 0.5
2015-Feb-26 13:33N 43°33' E 010°17'1 0.7
2015-Feb-26 12:33N 43°34' E 010°18'0 0.0
2015-Feb-26 11:33N 43°34' E 010°18'0 0.0
2015-Feb-26 10:33N 43°34' E 010°18'1 0.8
2015-Feb-26 09:33N 43°34' E 010°18'1 1.0
2015-Feb-26 08:33N 43°33' E 010°18'0 0.3
2015-Feb-26 07:33N 43°34' E 010°18'1 0.8
2015-Feb-26 06:33N 43°34' E 010°18'1 0.8
2015-Feb-26 05:33N 43°34' E 010°18'0 0.0
2015-Feb-26 04:33N 43°34' E 010°18'0 0.0
2015-Feb-26 03:33N 43°34' E 010°18'0 0.0
2015-Feb-26 02:33N 43°34' E 010°18'0 0.0
2015-Feb-26 01:33N 43°34' E 010°18'0 0.0
2015-Feb-26 00:33N 43°34' E 010°18'0 0.0
2015-Feb-25 23:33N 43°34' E 010°18'0 0.0
2015-Feb-25 22:33N 43°34' E 010°18'0 0.0
2015-Feb-25 21:33N 43°34' E 010°18'0 0.0
2015-Feb-25 20:33N 43°34' E 010°18'0 0.0
2015-Feb-25 19:33N 43°34' E 010°18'0 0.0
2015-Feb-25 18:33N 43°34' E 010°18'0 0.0
2015-Feb-25 17:33N 43°34' E 010°18'0 0.0
2015-Feb-24 16:33N 43°34' E 010°18'0 0.0
2015-Feb-24 15:33N 43°34' E 010°18'0 0.0
2015-Feb-24 14:33N 43°34' E 010°18'0 0.0
2015-Feb-24 13:33N 43°34' E 010°18'0 0.0
2015-Feb-24 12:33N 43°34' E 010°18'1 0.9
2015-Feb-24 11:33N 43°35' E 010°18'1 0.9
2015-Feb-24 10:33N 43°34' E 010°18'0 0.0
2015-Feb-24 09:33N 43°34' E 010°18'0 0.0
2015-Feb-24 08:33N 43°34' E 010°18'0 0.0
2015-Feb-24 07:33N 43°34' E 010°18'0 0.0
2015-Feb-24 06:33N 43°34' E 010°18'0 0.0
2015-Feb-24 05:33N 43°34' E 010°18'0 0.0
2015-Feb-24 04:33N 43°34' E 010°18'0 0.0
2015-Feb-24 03:33N 43°34' E 010°18'0 0.0
2015-Feb-24 02:33N 43°34' E 010°18'0 0.0
2015-Feb-24 01:33N 43°34' E 010°18'0 0.0
2015-Feb-24 00:33N 43°34' E 010°18'0 0.0
2015-Feb-23 23:33N 43°34' E 010°18'0 0.0
2015-Feb-23 22:33N 43°34' E 010°18'0 0.0
2015-Feb-23 21:33N 43°34' E 010°18'0 0.0
2015-Feb-23 20:33N 43°34' E 010°18'0 0.1
2015-Feb-23 19:33N 43°34' E 010°18'0 0.5
2015-Feb-23 18:33N 43°34' E 010°18'  
Track history (hours):
 
Tides and Currents Weather Stations Pressure Air Temp Water Temp Dewpoint Dewpoint Depression Visibility Wind Speed Wind Dir Waves Ship Positions

Porto Di Livorno

Last reported at 2015-Mar-05 17:33 UTC. Time now 2015-Mar-06 00:01 UTC.
Position N 43°34' E 010°18'.

Length 24 m; draft 6.1 m.

Type: Tug. MMSI: 247194299.

Date/timePositionNaut miles runAvg speedWind from/ knotsBaromVisibWave heightAir tempDewpointWater temp
2015-Mar-05 17:33N 43°34' E 010°18'1 0.9
2015-Mar-05 16:33N 43°33' E 010°17'1 1.1
2015-Mar-05 15:33N 43°34' E 010°18'0 0.2
2015-Mar-05 14:33N 43°34' E 010°18'0 0.0
2015-Mar-05 13:33N 43°34' E 010°18'1 0.8
2015-Mar-05 12:33N 43°34' E 010°18'2 2.0
2015-Mar-05 11:33N 43°33' E 010°17'1 1.2
2015-Mar-05 10:33N 43°34' E 010°18'0 0.0
2015-Mar-05 09:33N 43°34' E 010°18'1 1.1
2015-Mar-05 08:33N 43°35' E 010°18'2 1.1
2015-Mar-05 06:15N 43°32' E 010°17'1 2.0
2015-Mar-05 05:33N 43°34' E 010°18'0 0.0
2015-Mar-05 04:33N 43°34' E 010°18'0 0.0
2015-Mar-05 03:08N 43°34' E 010°18'0 0.0
2015-Mar-05 02:33N 43°34' E 010°18'0 0.0
2015-Mar-05 01:33N 43°34' E 010°18'0 0.0
2015-Mar-05 00:33N 43°34' E 010°18'0 0.0
2015-Mar-04 23:33N 43°34' E 010°18'0 0.0
2015-Mar-04 22:33N 43°34' E 010°18'0 0.0
2015-Mar-04 21:33N 43°34' E 010°18'0 0.0
2015-Mar-04 20:33N 43°34' E 010°18'0 0.0
2015-Mar-04 16:33N 43°34' E 010°18'0 0.4
2015-Mar-04 15:33N 43°33' E 010°18'0 0.1
2015-Mar-04 14:33N 43°33' E 010°18'0 0.4
2015-Mar-04 13:33N 43°34' E 010°18'0 0.0
2015-Mar-04 12:33N 43°34' E 010°18'0 0.0
2015-Mar-04 11:33N 43°34' E 010°18'0 0.0
2015-Mar-04 10:33N 43°34' E 010°18'0 0.0
2015-Mar-04 09:33N 43°34' E 010°18'1 1.1
2015-Mar-04 08:33N 43°35' E 010°19'1 1.2
2015-Mar-04 07:33N 43°34' E 010°18'0 0.0
2015-Mar-04 06:33N 43°34' E 010°18'0 0.0
2015-Mar-04 05:33N 43°34' E 010°18'0 0.0
2015-Mar-04 04:33N 43°34' E 010°18'0 0.0
2015-Mar-04 03:33N 43°34' E 010°18'0 0.0
2015-Mar-04 02:33N 43°34' E 010°18'0 0.0
2015-Mar-04 01:33N 43°34' E 010°18'0 0.0
2015-Mar-04 00:33N 43°34' E 010°18'0 0.0
2015-Mar-03 23:33N 43°34' E 010°18'0 0.0
2015-Mar-03 22:33N 43°34' E 010°18'0 0.0
2015-Mar-03 21:33N 43°34' E 010°18'0 0.0
2015-Mar-03 20:33N 43°34' E 010°18'0 0.0
2015-Mar-03 19:33N 43°34' E 010°18'1 0.7
2015-Mar-03 18:33N 43°34' E 010°18'0 0.2
2015-Mar-03 17:33N 43°34' E 010°18'1 0.0
2015-Mar-02 16:33N 43°34' E 010°18'0 0.0
2015-Mar-02 15:33N 43°34' E 010°18'0 0.0
2015-Mar-02 14:33N 43°34' E 010°18'0 0.0
2015-Mar-02 13:33N 43°34' E 010°18'1 0.9
2015-Mar-02 12:33N 43°35' E 010°18'1 0.9
2015-Mar-02 11:33N 43°34' E 010°18'0 0.4
2015-Mar-02 10:33N 43°33' E 010°18'1 0.5
2015-Mar-02 09:33N 43°33' E 010°17'0 0.4
2015-Mar-02 08:33N 43°33' E 010°18'1 0.5
2015-Mar-02 07:33N 43°33' E 010°18'1 1.0
2015-Mar-02 06:33N 43°34' E 010°18'0 0.0
2015-Mar-02 05:33N 43°34' E 010°18'0 0.0
2015-Mar-02 04:33N 43°34' E 010°18'0 0.0
2015-Mar-02 03:33N 43°34' E 010°18'0 0.0
2015-Mar-02 02:33N 43°34' E 010°18'0 0.0
2015-Mar-02 01:33N 43°34' E 010°18'1 0.8
2015-Mar-02 00:33N 43°34' E 010°18'1 0.8
2015-Mar-01 23:33N 43°34' E 010°18'0 0.0
2015-Mar-01 22:33N 43°34' E 010°18'0 0.0
2015-Mar-01 21:33N 43°34' E 010°18'0 0.1
2015-Mar-01 20:33N 43°34' E 010°18'0 0.1
2015-Mar-01 19:33N 43°34' E 010°18'0 0.0
2015-Mar-01 18:33N 43°34' E 010°18'0 0.0
2015-Mar-01 17:33N 43°34' E 010°18'0 0.0
2015-Feb-28 16:33N 43°34' E 010°18'0 0.0
2015-Feb-28 15:33N 43°34' E 010°18'0 0.0
2015-Feb-28 14:33N 43°34' E 010°18'0 0.0
2015-Feb-28 13:33N 43°34' E 010°18'0 0.0
2015-Feb-28 12:33N 43°34' E 010°18'1 1.1
2015-Feb-28 11:33N 43°35' E 010°19'2 1.6
2015-Feb-28 10:33N 43°33' E 010°18'0 0.4
2015-Feb-28 09:33N 43°34' E 010°18'1 1.5
2015-Feb-28 08:33N 43°32' E 010°17'2 1.7
2015-Feb-28 07:33N 43°34' E 010°18'1 0.7
2015-Feb-28 06:34N 43°34' E 010°19'1 0.7
2015-Feb-28 05:33N 43°34' E 010°18'0 0.0
2015-Feb-28 04:33N 43°34' E 010°18'0 0.0
2015-Feb-28 03:33N 43°34' E 010°18'0 0.0
2015-Feb-28 02:33N 43°34' E 010°18'0 0.0
2015-Feb-28 01:33N 43°34' E 010°18'0 0.0
2015-Feb-28 00:33N 43°34' E 010°18'0 0.0
2015-Feb-27 23:33N 43°34' E 010°18'0 0.0
2015-Feb-27 22:33N 43°34' E 010°18'1 0.6
2015-Feb-27 21:33N 43°34' E 010°18'1 0.6
2015-Feb-27 20:33N 43°34' E 010°18'1 0.5
2015-Feb-27 19:33N 43°34' E 010°18'1 0.6
2015-Feb-27 18:33N 43°34' E 010°18'0 0.1
2015-Feb-27 17:33N 43°34' E 010°18'0 0.0
2015-Feb-26 16:33N 43°34' E 010°18'0 0.0
2015-Feb-26 15:33N 43°34' E 010°18'0 0.3
2015-Feb-26 14:33N 43°34' E 010°18'0 0.5
2015-Feb-26 13:33N 43°33' E 010°17'1 0.7
2015-Feb-26 12:33N 43°34' E 010°18'0 0.0
2015-Feb-26 11:33N 43°34' E 010°18'0 0.0
2015-Feb-26 10:33N 43°34' E 010°18'1 0.8
2015-Feb-26 09:33N 43°34' E 010°18'1 1.0
2015-Feb-26 08:33N 43°33' E 010°18'0 0.3
2015-Feb-26 07:33N 43°34' E 010°18'1 0.8
2015-Feb-26 06:33N 43°34' E 010°18'1 0.8
2015-Feb-26 05:33N 43°34' E 010°18'0 0.0
2015-Feb-26 04:33N 43°34' E 010°18'0 0.0
2015-Feb-26 03:33N 43°34' E 010°18'0 0.0
2015-Feb-26 02:33N 43°34' E 010°18'0 0.0
2015-Feb-26 01:33N 43°34' E 010°18'0 0.0
2015-Feb-26 00:33N 43°34' E 010°18'0 0.0
2015-Feb-25 23:33N 43°34' E 010°18'0 0.0
2015-Feb-25 22:33N 43°34' E 010°18'0 0.0
2015-Feb-25 21:33N 43°34' E 010°18'0 0.0
2015-Feb-25 20:33N 43°34' E 010°18'0 0.0
2015-Feb-25 19:33N 43°34' E 010°18'0 0.0
2015-Feb-25 18:33N 43°34' E 010°18'0 0.0
2015-Feb-25 17:33N 43°34' E 010°18'0 0.0
2015-Feb-24 16:33N 43°34' E 010°18'0 0.0
2015-Feb-24 15:33N 43°34' E 010°18'0 0.0
2015-Feb-24 14:33N 43°34' E 010°18'0 0.0
2015-Feb-24 13:33N 43°34' E 010°18'0 0.0
2015-Feb-24 12:33N 43°34' E 010°18'1 0.9
2015-Feb-24 11:33N 43°35' E 010°18'1 0.9
2015-Feb-24 10:33N 43°34' E 010°18'0 0.0
2015-Feb-24 09:33N 43°34' E 010°18'0 0.0
2015-Feb-24 08:33N 43°34' E 010°18'0 0.0
2015-Feb-24 07:33N 43°34' E 010°18'0 0.0
2015-Feb-24 06:33N 43°34' E 010°18'0 0.0
2015-Feb-24 05:33N 43°34' E 010°18'0 0.0
2015-Feb-24 04:33N 43°34' E 010°18'0 0.0
2015-Feb-24 03:33N 43°34' E 010°18'0 0.0
2015-Feb-24 02:33N 43°34' E 010°18'0 0.0
2015-Feb-24 01:33N 43°34' E 010°18'0 0.0
2015-Feb-24 00:33N 43°34' E 010°18'0 0.0
2015-Feb-23 23:33N 43°34' E 010°18'0 0.0
2015-Feb-23 22:33N 43°34' E 010°18'0 0.0
2015-Feb-23 21:33N 43°34' E 010°18'0 0.0
2015-Feb-23 20:33N 43°34' E 010°18'0 0.1
2015-Feb-23 19:33N 43°34' E 010°18'0 0.5
2015-Feb-23 18:33N 43°34' E 010°18'  

Dump ship's entire track history